Time;durP1;ratioP1;P1;durP2;ratioP2;P2;SDS_P1;SDS_P2;PMS_P1;PMS_P2;Temp;Humidity;BMP_temperature;BMP_pressure;BME280_temperature;BME280_humidity;BME280_pressure;Samples;Min_cycle;Max_cycle;Signal;HPM_P1;HPM_P2
2022/03/13 00:00:47;;;;;;;5.15;1.33;;;;;;;;;;5067501;28;20459;-69
2022/03/13 00:03:13;;;;;;;5.60;1.70;;;;;;;;;;5075133;28;20056;-73
2022/03/13 00:05:40;;;;;;;4.43;1.42;;;;;;;;;;5075382;28;20028;-66
2022/03/13 00:08:16;;;;;;;3.03;1.38;;;;;;;;;;5075158;28;20021;-64
2022/03/13 00:10:43;;;;;;;5.18;1.80;;;;;;;;;;5074964;28;20052;-72
2022/03/13 00:13:19;;;;;;;4.75;1.30;;;;;;;;;;5074492;28;20101;-64
2022/03/13 00:15:45;;;;;;;4.38;1.38;;;;;;;;;;5075131;28;20399;-64
2022/03/13 00:18:12;;;;;;;5.30;1.55;;;;;;;;;;5075046;28;20491;-64
2022/03/13 00:20:38;;;;;;;3.92;1.40;;;;;;;;;;5074696;28;20027;-72
2022/03/13 00:23:05;;;;;;;4.70;1.30;;;;;;;;;;5074726;28;20364;-71
2022/03/13 00:25:31;;;;;;;4.55;1.30;;;;;;;;;;5074915;28;20021;-70
2022/03/13 00:27:57;;;;;;;10.10;1.27;;;;;;;;;;5075045;28;20056;-69
2022/03/13 00:30:23;;;;;;;7.68;1.40;;;;;;;;;;5075283;28;20047;-72
2022/03/13 00:32:50;;;;;;;7.30;1.48;;;;;;;;;;5073468;28;20043;-67
2022/03/13 00:35:16;;;;;;;5.70;1.65;;;;;;;;;;5075283;28;20090;-74
2022/03/13 00:37:42;;;;;;;10.77;1.55;;;;;;;;;;5075242;28;20024;-73
2022/03/13 00:40:10;;;;;;;3.53;0.95;;;;;;;;;;5074786;28;20027;-71
2022/03/13 00:42:37;;;;;;;5.43;1.50;;;;;;;;;;5074847;28;20107;-72
2022/03/13 00:45:03;;;;;;;3.42;1.20;;;;;;;;;;5074939;28;20025;-68
2022/03/13 00:47:28;;;;;;;1.98;1.15;;;;;;;;;;5074803;28;20025;-68
2022/03/13 00:49:54;;;;;;;4.43;1.30;;;;;;;;;;5056306;28;20028;-69
2022/03/13 00:52:20;;;;;;;1.65;1.10;;;;;;;;;;5056753;28;20025;-68
2022/03/13 00:54:46;;;;;;;2.70;1.10;;;;;;;;;;5074635;28;20115;-71
2022/03/13 00:57:13;;;;;;;2.40;1.10;;;;;;;;;;5074622;28;20024;-74
2022/03/13 00:59:39;;;;;;;2.10;1.10;;;;;;;;;;5074361;28;20027;-68
2022/03/13 01:02:05;;;;;;;3.55;1.20;;;;;;;;;;5074087;28;20095;-65
2022/03/13 01:04:31;;;;;;;7.57;0.98;;;;;;;;;;5056264;28;20112;-72
2022/03/13 01:06:57;;;;;;;3.03;1.23;;;;;;;;;;5073980;28;20367;-65
2022/03/13 01:09:23;;;;;;;1.20;1.00;;;;;;;;;;5074205;28;20025;-68
2022/03/13 01:11:49;;;;;;;2.05;1.00;;;;;;;;;;5073949;28;20082;-66
2022/03/13 01:14:16;;;;;;;3.33;1.00;;;;;;;;;;5073616;28;20478;-71
2022/03/13 01:16:43;;;;;;;2.40;1.13;;;;;;;;;;5074054;28;20460;-71
2022/03/13 01:19:09;;;;;;;4.75;1.25;;;;;;;;;;5055153;28;20024;-67
2022/03/13 01:21:39;;;;;;;2.78;1.00;;;;;;;;;;5054035;28;20403;-67
2022/03/13 01:24:09;;;;;;;3.35;1.08;;;;;;;;;;5067723;28;20033;-65
2022/03/13 01:26:36;;;;;;;2.85;1.00;;;;;;;;;;5053239;28;20020;-65
2022/03/13 01:29:03;;;;;;;4.07;1.20;;;;;;;;;;5061521;28;20127;-75
2022/03/13 01:31:32;;;;;;;6.07;1.35;;;;;;;;;;5073539;28;20079;-73
2022/03/13 01:33:58;;;;;;;7.95;1.23;;;;;;;;;;5055894;28;20037;-73
2022/03/13 01:36:24;;;;;;;13.68;1.20;;;;;;;;;;5073887;28;20371;-71
2022/03/13 01:38:54;;;;;;;8.20;1.33;;;;;;;;;;5056154;28;20029;-76
2022/03/13 01:41:20;;;;;;;3.80;1.40;;;;;;;;;;5073959;28;20028;-75
2022/03/13 01:43:48;;;;;;;14.93;1.08;;;;;;;;;;5073962;28;20035;-67
2022/03/13 01:46:13;;;;;;;13.70;1.30;;;;;;;;;;5073999;28;20541;-72
2022/03/13 01:48:51;;;;;;;6.43;1.40;;;;;;;;;;5074138;28;20484;-72
2022/03/13 01:51:17;;;;;;;10.07;1.08;;;;;;;;;;5072612;28;20064;-73
2022/03/13 01:53:43;;;;;;;9.35;1.08;;;;;;;;;;5073909;28;20413;-73
2022/03/13 01:56:09;;;;;;;9.15;1.00;;;;;;;;;;5073194;28;20035;-73
2022/03/13 01:58:35;;;;;;;5.25;1.30;;;;;;;;;;5073951;28;20024;-71
2022/03/13 02:01:01;;;;;;;5.78;1.35;;;;;;;;;;5072853;28;20025;-69
2022/03/13 02:03:28;;;;;;;9.45;1.20;;;;;;;;;;5073023;28;20071;-70
2022/03/13 02:05:54;;;;;;;15.82;1.13;;;;;;;;;;5073140;28;20023;-72
2022/03/13 02:08:20;;;;;;;13.85;1.40;;;;;;;;;;5072923;28;20020;-66
2022/03/13 02:10:46;;;;;;;12.52;1.20;;;;;;;;;;5072772;28;20025;-65
2022/03/13 02:13:15;;;;;;;8.68;1.40;;;;;;;;;;5072666;28;20109;-73
2022/03/13 02:15:41;;;;;;;8.45;1.42;;;;;;;;;;5073553;28;20032;-75
2022/03/13 02:18:07;;;;;;;11.93;1.40;;;;;;;;;;5072801;28;20048;-66
2022/03/13 02:20:51;;;;;;;17.25;1.38;;;;;;;;;;5071347;28;20028;-68
2022/03/13 02:23:22;;;;;;;6.07;1.27;;;;;;;;;;5067870;28;20037;-69
2022/03/13 02:25:49;;;;;;;12.45;1.30;;;;;;;;;;5055422;28;20028;-73
2022/03/13 02:28:18;;;;;;;9.48;1.05;;;;;;;;;;5073287;28;20035;-73
2022/03/13 02:30:45;;;;;;;10.75;1.55;;;;;;;;;;5073124;28;20475;-75
2022/03/13 02:33:11;;;;;;;10.70;1.20;;;;;;;;;;5072859;28;20033;-73
2022/03/13 02:35:37;;;;;;;9.50;1.20;;;;;;;;;;5073260;28;20134;-76
2022/03/13 02:38:03;;;;;;;11.50;1.40;;;;;;;;;;5071959;28;20024;-67
2022/03/13 02:40:29;;;;;;;21.67;1.40;;;;;;;;;;5056434;28;20029;-72
2022/03/13 02:42:56;;;;;;;5.72;1.02;;;;;;;;;;5072526;28;20029;-70
2022/03/13 02:45:33;;;;;;;18.73;1.40;;;;;;;;;;5065862;28;20021;-73
2022/03/13 02:48:00;;;;;;;13.07;1.02;;;;;;;;;;5038994;28;20032;-73
2022/03/13 02:50:26;;;;;;;4.95;1.13;;;;;;;;;;5072796;28;20024;-72
2022/03/13 02:52:52;;;;;;;20.05;1.45;;;;;;;;;;5072378;28;20017;-73
2022/03/13 02:55:18;;;;;;;15.05;1.17;;;;;;;;;;5072334;28;20028;-72
2022/03/13 02:57:44;;;;;;;5.72;1.25;;;;;;;;;;5072555;28;20060;-72
2022/03/13 03:00:10;;;;;;;11.55;0.98;;;;;;;;;;5072427;28;20021;-70
2022/03/13 03:02:36;;;;;;;9.45;1.02;;;;;;;;;;5069931;28;20029;-68
2022/03/13 03:05:04;;;;;;;7.43;1.17;;;;;;;;;;5064974;28;20040;-70
2022/03/13 03:07:31;;;;;;;4.90;1.10;;;;;;;;;;5071893;28;20028;-67
2022/03/13 03:09:57;;;;;;;7.38;1.20;;;;;;;;;;5071559;28;20024;-69
2022/03/13 03:12:23;;;;;;;6.05;0.93;;;;;;;;;;5071766;28;20113;-70
2022/03/13 03:14:49;;;;;;;7.22;1.00;;;;;;;;;;5071350;28;20036;-65
2022/03/13 03:17:16;;;;;;;6.40;0.90;;;;;;;;;;5071745;28;20023;-67
2022/03/13 03:19:42;;;;;;;4.50;0.95;;;;;;;;;;5071446;28;20025;-70
2022/03/13 03:24:58;;;;;;;3.78;0.98;;;;;;;;;;4867458;26;20047;-70
2022/03/13 03:27:24;;;;;;;5.60;1.20;;;;;;;;;;4956458;28;20024;-69
2022/03/13 03:29:50;;;;;;;3.80;1.20;;;;;;;;;;4960165;28;20041;-71
2022/03/13 03:32:16;;;;;;;6.57;1.00;;;;;;;;;;4961202;28;20120;-69
2022/03/13 03:34:42;;;;;;;11.55;1.10;;;;;;;;;;4953679;28;20039;-69
2022/03/13 03:37:09;;;;;;;9.27;1.38;;;;;;;;;;4956133;28;20055;-70
2022/03/13 03:39:35;;;;;;;5.43;1.10;;;;;;;;;;4953353;29;20027;-71
2022/03/13 03:42:02;;;;;;;4.07;0.90;;;;;;;;;;4957564;28;20030;-69
2022/03/13 03:44:28;;;;;;;8.25;1.30;;;;;;;;;;4953642;29;20374;-70
2022/03/13 03:46:55;;;;;;;6.93;0.98;;;;;;;;;;4953666;29;20035;-68
2022/03/13 03:49:21;;;;;;;10.38;1.45;;;;;;;;;;4958032;28;20034;-67
2022/03/13 03:51:47;;;;;;;8.68;1.13;;;;;;;;;;4958888;28;20027;-68
2022/03/13 03:54:14;;;;;;;7.43;0.90;;;;;;;;;;4961707;28;20542;-70
2022/03/13 03:56:40;;;;;;;3.83;0.95;;;;;;;;;;4960973;28;20505;-69
2022/03/13 03:59:06;;;;;;;3.85;0.85;;;;;;;;;;4962524;28;20042;-69
2022/03/13 04:01:37;;;;;;;5.65;1.45;;;;;;;;;;4978070;28;20070;-68
2022/03/13 04:04:04;;;;;;;2.58;1.00;;;;;;;;;;4958978;28;20082;-65
2022/03/13 04:06:30;;;;;;;7.88;0.90;;;;;;;;;;4958643;28;20470;-63
2022/03/13 04:08:56;;;;;;;13.02;1.25;;;;;;;;;;4956915;29;20073;-65
2022/03/13 04:11:22;;;;;;;38.63;1.80;;;;;;;;;;4956293;29;20062;-63
2022/03/13 04:13:48;;;;;;;24.70;1.45;;;;;;;;;;4962034;28;20043;-69
2022/03/13 04:16:14;;;;;;;21.10;1.98;;;;;;;;;;4972734;28;20031;-68
2022/03/13 04:18:40;;;;;;;26.70;1.30;;;;;;;;;;4976093;28;20035;-69
2022/03/13 04:21:06;;;;;;;5.95;1.10;;;;;;;;;;4956027;28;20035;-69
2022/03/13 04:23:33;;;;;;;14.40;1.15;;;;;;;;;;4969208;28;20033;-68
2022/03/13 04:26:00;;;;;;;7.55;1.10;;;;;;;;;;4976066;28;20081;-69
2022/03/13 04:28:26;;;;;;;18.20;1.60;;;;;;;;;;4975956;28;20818;-68
2022/03/13 04:30:57;;;;;;;15.32;1.30;;;;;;;;;;4975597;28;20069;-68
2022/03/13 04:33:23;;;;;;;9.27;1.00;;;;;;;;;;4972276;28;20061;-69
2022/03/13 04:35:49;;;;;;;11.60;1.20;;;;;;;;;;4957052;28;20059;-66
2022/03/13 04:38:15;;;;;;;38.30;1.63;;;;;;;;;;4956591;29;20027;-68
2022/03/13 04:40:41;;;;;;;45.65;1.90;;;;;;;;;;4959196;28;20037;-64
2022/03/13 04:43:08;;;;;;;20.50;1.30;;;;;;;;;;4947989;28;20024;-68
2022/03/13 04:45:35;;;;;;;10.57;1.13;;;;;;;;;;4946765;28;20023;-70
2022/03/13 04:48:01;;;;;;;14.18;1.20;;;;;;;;;;4943290;29;20090;-68
2022/03/13 04:50:27;;;;;;;10.50;1.08;;;;;;;;;;4966197;28;20039;-69
2022/03/13 04:52:53;;;;;;;15.73;1.25;;;;;;;;;;4961319;28;20026;-68
2022/03/13 04:55:19;;;;;;;5.00;1.10;;;;;;;;;;4966593;28;20058;-71
2022/03/13 04:57:45;;;;;;;12.85;1.20;;;;;;;;;;4964451;28;20034;-70
2022/03/13 05:00:11;;;;;;;3.83;0.90;;;;;;;;;;4965959;28;20127;-70
2022/03/13 05:02:37;;;;;;;6.82;1.00;;;;;;;;;;4946751;28;20023;-69
2022/03/13 05:05:03;;;;;;;5.93;1.17;;;;;;;;;;4964090;28;20486;-70
2022/03/13 05:07:30;;;;;;;7.93;1.13;;;;;;;;;;4946477;28;20030;-69
2022/03/13 05:09:56;;;;;;;2.10;0.90;;;;;;;;;;4963945;28;20023;-68
2022/03/13 05:12:25;;;;;;;4.55;0.95;;;;;;;;;;4964086;28;20027;-71
2022/03/13 05:14:51;;;;;;;2.08;0.80;;;;;;;;;;4966222;28;20474;-69
2022/03/13 05:17:16;;;;;;;4.70;1.00;;;;;;;;;;4965936;28;20073;-68
2022/03/13 05:19:44;;;;;;;3.88;0.98;;;;;;;;;;4961190;28;20035;-70
2022/03/13 05:22:11;;;;;;;7.03;1.00;;;;;;;;;;4963450;28;20110;-67
2022/03/13 05:24:37;;;;;;;9.38;1.20;;;;;;;;;;4963443;28;20054;-69
2022/03/13 05:27:03;;;;;;;8.30;1.15;;;;;;;;;;4966303;28;20068;-67
2022/03/13 05:29:29;;;;;;;6.25;1.20;;;;;;;;;;4971495;28;20041;-71
2022/03/13 05:31:55;;;;;;;8.82;1.17;;;;;;;;;;4957210;28;20106;-69
2022/03/13 05:34:21;;;;;;;7.07;1.20;;;;;;;;;;4954964;29;20054;-66
2022/03/13 05:36:46;;;;;;;7.63;1.10;;;;;;;;;;4955266;29;20042;-69
2022/03/13 05:39:13;;;;;;;4.93;1.02;;;;;;;;;;4955836;28;20474;-67
2022/03/13 05:41:40;;;;;;;9.57;1.10;;;;;;;;;;4965153;28;20366;-63
2022/03/13 05:44:09;;;;;;;11.75;1.17;;;;;;;;;;4948449;28;20034;-66
2022/03/13 05:46:35;;;;;;;8.15;1.23;;;;;;;;;;4962811;28;20023;-69
2022/03/13 05:49:02;;;;;;;2.55;1.00;;;;;;;;;;4965110;28;20025;-67
2022/03/13 05:51:28;;;;;;;7.15;0.90;;;;;;;;;;4963759;28;20027;-71
2022/03/13 05:53:54;;;;;;;6.78;1.00;;;;;;;;;;4942197;28;20058;-69
2022/03/13 05:56:20;;;;;;;9.48;1.00;;;;;;;;;;4946630;28;20058;-68
2022/03/13 05:58:46;;;;;;;1.95;1.17;;;;;;;;;;4964686;28;20030;-70
2022/03/13 06:01:11;;;;;;;9.13;1.10;;;;;;;;;;4967684;28;20085;-70
2022/03/13 06:03:38;;;;;;;7.38;1.00;;;;;;;;;;4967750;28;20473;-64
2022/03/13 06:06:04;;;;;;;9.10;1.50;;;;;;;;;;4945566;28;20023;-69
2022/03/13 06:08:31;;;;;;;2.03;0.90;;;;;;;;;;4966536;28;20110;-69
2022/03/13 06:10:57;;;;;;;5.22;1.23;;;;;;;;;;4952611;29;20027;-78
2022/03/13 06:13:24;;;;;;;21.73;1.27;;;;;;;;;;4967407;28;20117;-81
2022/03/13 06:15:50;;;;;;;15.35;1.17;;;;;;;;;;4944881;28;20031;-82
2022/03/13 06:18:16;;;;;;;13.65;1.40;;;;;;;;;;4968389;28;20139;-82
2022/03/13 06:20:43;;;;;;;17.48;1.48;;;;;;;;;;4963992;28;20035;-78
2022/03/13 06:23:10;;;;;;;11.55;1.17;;;;;;;;;;4966160;28;20029;-78
2022/03/13 06:25:36;;;;;;;19.20;1.40;;;;;;;;;;4962348;28;20078;-67
2022/03/13 06:28:02;;;;;;;21.02;1.58;;;;;;;;;;4964665;28;20058;-70
2022/03/13 06:30:28;;;;;;;30.35;2.17;;;;;;;;;;4957543;28;20027;-69
2022/03/13 06:32:55;;;;;;;34.10;1.80;;;;;;;;;;4962135;28;20031;-71
2022/03/13 06:35:23;;;;;;;15.90;1.90;;;;;;;;;;4970273;28;20070;-71
2022/03/13 06:37:50;;;;;;;35.83;2.50;;;;;;;;;;4974665;28;20018;-75
2022/03/13 06:40:19;;;;;;;28.00;2.25;;;;;;;;;;4966947;28;20110;-77
2022/03/13 06:42:46;;;;;;;14.68;1.70;;;;;;;;;;4942886;28;20614;-76
2022/03/13 06:45:12;;;;;;;18.70;1.60;;;;;;;;;;4958902;28;20032;-78
2022/03/13 06:47:39;;;;;;;21.92;2.35;;;;;;;;;;4970797;28;20081;-78
2022/03/13 06:50:05;;;;;;;17.63;1.80;;;;;;;;;;4971226;28;20025;-77
2022/03/13 06:52:31;;;;;;;12.10;2.03;;;;;;;;;;4970401;28;20050;-77
2022/03/13 06:54:57;;;;;;;9.50;1.70;;;;;;;;;;4939965;29;20085;-79
2022/03/13 06:57:23;;;;;;;7.60;2.20;;;;;;;;;;4959485;28;20019;-78
2022/03/13 06:59:49;;;;;;;9.13;1.90;;;;;;;;;;4968688;28;20394;-79
2022/03/13 07:02:16;;;;;;;7.65;2.15;;;;;;;;;;4957338;28;20089;-72
2022/03/13 07:04:42;;;;;;;4.75;2.10;;;;;;;;;;4966096;28;20074;-78
2022/03/13 07:07:08;;;;;;;5.22;2.17;;;;;;;;;;4964213;28;20027;-78
2022/03/13 07:09:34;;;;;;;2.88;1.80;;;;;;;;;;4967595;28;20042;-75
2022/03/13 07:12:00;;;;;;;8.55;2.17;;;;;;;;;;4959857;28;20028;-74
2022/03/13 07:14:27;;;;;;;6.47;2.15;;;;;;;;;;4949242;29;20031;-73
2022/03/13 07:16:53;;;;;;;3.60;2.15;;;;;;;;;;4951664;28;20620;-72
2022/03/13 07:19:20;;;;;;;3.95;2.40;;;;;;;;;;4945695;29;20027;-76
2022/03/13 07:21:46;;;;;;;9.23;2.70;;;;;;;;;;4960438;28;20023;-79
2022/03/13 07:24:12;;;;;;;2.45;2.25;;;;;;;;;;4958646;28;20078;-80
2022/03/13 07:26:38;;;;;;;2.13;1.92;;;;;;;;;;4973649;28;20027;-75
2022/03/13 07:29:04;;;;;;;3.78;1.98;;;;;;;;;;4971577;28;20118;-78
2022/03/13 07:31:30;;;;;;;5.18;2.85;;;;;;;;;;4964279;28;20085;-78
2022/03/13 07:33:57;;;;;;;4.72;2.83;;;;;;;;;;4963546;28;20152;-68
2022/03/13 07:36:23;;;;;;;3.05;2.50;;;;;;;;;;4947029;28;20027;-78
2022/03/13 07:38:49;;;;;;;4.43;3.00;;;;;;;;;;4964614;28;20015;-74
2022/03/13 07:41:15;;;;;;;4.38;2.90;;;;;;;;;;4969552;28;20110;-80
2022/03/13 07:43:41;;;;;;;3.10;2.63;;;;;;;;;;4972597;28;20081;-78
2022/03/13 07:46:07;;;;;;;2.72;2.50;;;;;;;;;;4978052;28;20030;-76
2022/03/13 07:48:36;;;;;;;7.80;3.03;;;;;;;;;;4959817;28;20374;-78
2022/03/13 07:51:04;;;;;;;3.58;2.90;;;;;;;;;;4962408;28;20575;-76
2022/03/13 07:53:30;;;;;;;5.40;2.90;;;;;;;;;;4972898;28;20109;-79
2022/03/13 07:55:56;;;;;;;5.93;2.78;;;;;;;;;;4972015;28;20410;-77
2022/03/13 07:58:22;;;;;;;6.57;3.17;;;;;;;;;;4974601;28;20127;-79
2022/03/13 08:00:49;;;;;;;4.53;3.15;;;;;;;;;;4968701;28;20391;-77
2022/03/13 08:03:16;;;;;;;11.10;3.72;;;;;;;;;;4974964;28;20023;-79
2022/03/13 08:05:42;;;;;;;6.18;3.20;;;;;;;;;;4961283;28;20027;-76
2022/03/13 08:08:08;;;;;;;4.10;3.10;;;;;;;;;;4966727;28;20359;-79
2022/03/13 08:10:34;;;;;;;5.72;3.28;;;;;;;;;;4968615;28;20086;-75
2022/03/13 08:13:00;;;;;;;6.35;3.05;;;;;;;;;;4959833;28;20098;-73
2022/03/13 08:15:26;;;;;;;9.52;3.33;;;;;;;;;;4957451;29;20490;-72
2022/03/13 08:17:52;;;;;;;5.57;2.80;;;;;;;;;;4940262;29;20487;-73
2022/03/13 08:20:19;;;;;;;8.32;3.47;;;;;;;;;;4959364;28;20102;-72
2022/03/13 08:22:45;;;;;;;11.90;3.17;;;;;;;;;;4957032;28;20128;-73
2022/03/13 08:25:15;;;;;;;5.57;3.53;;;;;;;;;;4966905;28;20046;-69
2022/03/13 08:27:41;;;;;;;9.38;3.47;;;;;;;;;;4969669;28;20039;-70
2022/03/13 08:30:09;;;;;;;15.40;3.50;;;;;;;;;;4965647;28;20483;-73
2022/03/13 08:32:35;;;;;;;21.38;3.13;;;;;;;;;;4975714;28;20414;-72
2022/03/13 08:35:01;;;;;;;13.98;3.65;;;;;;;;;;4957534;28;20113;-69
2022/03/13 08:37:27;;;;;;;16.98;3.10;;;;;;;;;;4955603;29;20063;-72
2022/03/13 08:39:53;;;;;;;15.45;3.65;;;;;;;;;;4955928;28;20035;-71
2022/03/13 08:42:19;;;;;;;14.68;3.33;;;;;;;;;;4956558;29;20111;-72
2022/03/13 08:44:45;;;;;;;6.75;2.97;;;;;;;;;;4973791;28;20045;-71
2022/03/13 08:47:11;;;;;;;10.70;4.20;;;;;;;;;;4955813;28;20074;-73
2022/03/13 08:49:36;;;;;;;16.20;4.45;;;;;;;;;;4960582;28;20466;-70
2022/03/13 08:52:02;;;;;;;10.68;4.45;;;;;;;;;;4958379;28;20038;-72
2022/03/13 08:54:28;;;;;;;14.43;5.50;;;;;;;;;;4961929;28;20057;-71
2022/03/13 08:56:54;;;;;;;16.88;5.40;;;;;;;;;;4978016;28;20441;-72
2022/03/13 08:59:20;;;;;;;13.63;5.80;;;;;;;;;;4975656;28;20046;-72
2022/03/13 09:01:47;;;;;;;9.48;5.10;;;;;;;;;;4969709;28;20054;-71
2022/03/13 09:04:13;;;;;;;16.75;6.03;;;;;;;;;;4956067;29;20032;-71
2022/03/13 09:06:39;;;;;;;10.85;5.35;;;;;;;;;;4964372;28;20358;-70
2022/03/13 09:09:06;;;;;;;14.02;5.80;;;;;;;;;;4955661;28;20027;-71
2022/03/13 09:11:34;;;;;;;14.65;6.20;;;;;;;;;;4955643;29;20503;-70
2022/03/13 09:14:00;;;;;;;8.50;5.93;;;;;;;;;;4938159;29;20087;-71
2022/03/13 09:16:27;;;;;;;8.98;5.78;;;;;;;;;;4938265;29;20113;-71
2022/03/13 09:18:53;;;;;;;6.80;5.63;;;;;;;;;;4955651;29;20030;-71
2022/03/13 09:21:19;;;;;;;8.07;5.57;;;;;;;;;;4951402;29;20062;-70
2022/03/13 09:23:45;;;;;;;6.00;4.82;;;;;;;;;;4955238;28;20465;-71
2022/03/13 09:26:11;;;;;;;11.23;5.53;;;;;;;;;;4954736;29;20103;-70
2022/03/13 09:28:38;;;;;;;9.73;4.97;;;;;;;;;;4938350;29;20032;-71
2022/03/13 09:31:04;;;;;;;6.38;5.40;;;;;;;;;;4954474;28;20051;-71
2022/03/13 09:33:30;;;;;;;6.47;5.28;;;;;;;;;;4955542;29;20059;-71
2022/03/13 09:35:56;;;;;;;8.30;4.55;;;;;;;;;;4955532;29;20027;-71
2022/03/13 09:38:22;;;;;;;10.20;5.97;;;;;;;;;;4955356;29;20034;-70
2022/03/13 09:40:48;;;;;;;9.05;5.65;;;;;;;;;;4957896;28;20058;-71
2022/03/13 09:43:14;;;;;;;7.65;5.53;;;;;;;;;;4959812;28;20035;-70
2022/03/13 09:45:47;;;;;;;7.72;5.60;;;;;;;;;;4948491;28;20367;-70
2022/03/13 09:48:15;;;;;;;8.98;5.28;;;;;;;;;;4967163;28;20030;-70
2022/03/13 09:50:42;;;;;;;7.75;5.47;;;;;;;;;;4948890;28;20027;-71
2022/03/13 09:53:08;;;;;;;7.50;5.13;;;;;;;;;;4966595;28;20226;-70
2022/03/13 09:55:34;;;;;;;7.47;5.22;;;;;;;;;;4967312;28;20037;-70
2022/03/13 09:58:00;;;;;;;6.50;5.15;;;;;;;;;;4952170;28;20030;-69
2022/03/13 10:00:27;;;;;;;8.18;5.40;;;;;;;;;;4965387;28;20027;-71
2022/03/13 10:02:54;;;;;;;7.20;5.30;;;;;;;;;;4966262;28;20023;-71
2022/03/13 10:05:22;;;;;;;9.70;5.47;;;;;;;;;;4965929;28;20014;-70
2022/03/13 10:08:04;;;;;;;7.32;5.07;;;;;;;;;;4943699;28;20033;-70
2022/03/13 10:10:36;;;;;;;7.13;5.53;;;;;;;;;;4959295;28;20106;-72
2022/03/13 10:13:02;;;;;;;5.45;4.57;;;;;;;;;;4973937;28;20062;-71
2022/03/13 10:15:39;;;;;;;8.35;5.03;;;;;;;;;;4968335;28;20073;-73
2022/03/13 10:18:12;;;;;;;7.07;4.60;;;;;;;;;;4961552;28;20019;-72
2022/03/13 10:20:39;;;;;;;6.63;4.90;;;;;;;;;;4939357;29;20038;-74
2022/03/13 10:23:10;;;;;;;7.20;5.05;;;;;;;;;;4955342;28;20027;-71
2022/03/13 10:25:41;;;;;;;6.13;4.68;;;;;;;;;;4937972;29;20059;-73
2022/03/13 10:28:22;;;;;;;8.32;4.90;;;;;;;;;;4954953;29;20527;-73
2022/03/13 10:31:00;;;;;;;5.85;4.93;;;;;;;;;;4957251;28;20086;-73
2022/03/13 10:33:45;;;;;;;8.95;4.93;;;;;;;;;;4972261;28;20046;-73
2022/03/13 10:36:18;;;;;;;9.07;6.43;;;;;;;;;;4966938;28;20034;-74
2022/03/13 10:38:44;;;;;;;8.45;5.05;;;;;;;;;;4969898;28;20098;-74
2022/03/13 10:41:12;;;;;;;7.90;5.13;;;;;;;;;;4967942;28;20094;-75
2022/03/13 10:43:54;;;;;;;6.25;5.20;;;;;;;;;;4961457;28;20032;-73
2022/03/13 10:46:29;;;;;;;9.18;4.93;;;;;;;;;;4951790;28;20506;-73
2022/03/13 10:48:56;;;;;;;9.18;5.10;;;;;;;;;;4970174;28;20054;-74
2022/03/13 10:51:34;;;;;;;9.27;4.40;;;;;;;;;;4961871;28;20039;-71
2022/03/13 10:54:00;;;;;;;7.38;4.13;;;;;;;;;;4953628;28;20129;-71
2022/03/13 10:56:27;;;;;;;5.93;4.30;;;;;;;;;;4964909;28;20039;-71
2022/03/13 10:58:53;;;;;;;6.22;4.45;;;;;;;;;;4953310;29;20050;-70
2022/03/13 11:01:20;;;;;;;5.85;4.25;;;;;;;;;;4971555;28;20378;-70
2022/03/13 11:03:51;;;;;;;6.18;4.47;;;;;;;;;;4957806;28;20027;-71
2022/03/13 11:06:17;;;;;;;8.25;4.10;;;;;;;;;;4940609;28;20081;-75
2022/03/13 11:08:43;;;;;;;6.53;4.85;;;;;;;;;;4970026;28;20030;-74
2022/03/13 11:11:10;;;;;;;7.07;4.75;;;;;;;;;;4964667;28;20454;-74
2022/03/13 11:13:39;;;;;;;7.35;4.43;;;;;;;;;;4957759;28;20873;-72
2022/03/13 11:16:09;;;;;;;4.75;4.18;;;;;;;;;;4967264;28;20457;-72
2022/03/13 11:18:36;;;;;;;5.18;4.68;;;;;;;;;;4964529;28;20159;-70
2022/03/13 11:21:06;;;;;;;5.53;4.35;;;;;;;;;;4961174;28;20259;-71
2022/03/13 11:23:33;;;;;;;5.15;4.65;;;;;;;;;;4969265;28;20030;-70
2022/03/13 11:25:59;;;;;;;8.13;4.88;;;;;;;;;;4969240;28;20035;-71
2022/03/13 11:28:27;;;;;;;6.45;5.03;;;;;;;;;;4960963;28;20086;-71
2022/03/13 11:30:53;;;;;;;5.40;4.32;;;;;;;;;;4953707;29;20090;-72
2022/03/13 11:33:32;;;;;;;5.82;4.40;;;;;;;;;;4968601;28;20014;-72
2022/03/13 11:36:27;;;;;;;5.32;4.82;;;;;;;;;;4922690;29;20027;-71
2022/03/13 11:39:13;;;;;;;6.32;5.03;;;;;;;;;;4953690;28;20027;-72
2022/03/13 11:41:44;;;;;;;5.65;4.97;;;;;;;;;;4955418;28;20023;-73
2022/03/13 11:44:19;;;;;;;7.72;4.82;;;;;;;;;;4937612;29;20038;-71
2022/03/13 11:46:47;;;;;;;8.00;5.00;;;;;;;;;;4956148;28;20088;-72
2022/03/13 11:49:17;;;;;;;6.47;4.80;;;;;;;;;;4961899;28;20034;-71
2022/03/13 11:51:46;;;;;;;7.90;5.25;;;;;;;;;;4935980;29;20914;-72
2022/03/13 11:54:16;;;;;;;7.75;5.10;;;;;;;;;;4970174;28;20050;-72
2022/03/13 11:56:49;;;;;;;9.85;5.28;;;;;;;;;;4972471;28;20027;-69
2022/03/13 11:59:19;;;;;;;13.70;6.10;;;;;;;;;;4965668;28;20028;-70
2022/03/13 12:01:45;;;;;;;14.40;5.43;;;;;;;;;;4953705;28;20034;-71
2022/03/13 12:04:14;;;;;;;34.35;6.38;;;;;;;;;;4957257;28;20034;-70
2022/03/13 12:06:41;;;;;;;8.70;5.15;;;;;;;;;;4962094;28;20027;-74
2022/03/13 12:09:09;;;;;;;9.77;5.38;;;;;;;;;;4955657;28;20507;-75
2022/03/13 12:11:38;;;;;;;9.93;6.97;;;;;;;;;;4972824;28;20401;-74
2022/03/13 12:14:04;;;;;;;12.88;7.15;;;;;;;;;;4970710;28;20027;-72
2022/03/13 12:16:36;;;;;;;10.45;7.55;;;;;;;;;;4925797;29;20029;-72
2022/03/13 12:19:03;;;;;;;11.52;8.02;;;;;;;;;;4969736;28;20463;-73
2022/03/13 12:21:31;;;;;;;13.60;7.78;;;;;;;;;;4976744;28;20034;-72
2022/03/13 12:24:18;;;;;;;9.80;8.13;;;;;;;;;;4976748;28;20089;-73
2022/03/13 12:26:45;;;;;;;10.75;7.55;;;;;;;;;;4955503;28;20482;-73
2022/03/13 12:29:15;;;;;;;9.85;6.95;;;;;;;;;;4967711;28;20022;-73
2022/03/13 12:31:42;;;;;;;10.18;8.45;;;;;;;;;;4956804;29;20038;-73
2022/03/13 12:34:08;;;;;;;10.18;7.75;;;;;;;;;;4956920;28;20126;-73
2022/03/13 12:36:37;;;;;;;8.32;6.70;;;;;;;;;;4957530;28;20027;-72
2022/03/13 12:39:10;;;;;;;7.68;6.68;;;;;;;;;;4948109;29;20035;-73
2022/03/13 12:41:39;;;;;;;;;;;;;;;;;;4950963;28;20021;-74
2022/03/13 12:44:05;;;;;;;8.63;6.72;;;;;;;;;;4943471;28;19994;-73
2022/03/13 12:46:32;;;;;;;6.85;5.70;;;;;;;;;;4970959;28;20114;-74
2022/03/13 12:48:59;;;;;;;8.55;6.05;;;;;;;;;;4949112;29;20027;-74
2022/03/13 12:51:35;;;;;;;8.18;5.43;;;;;;;;;;4958910;28;20030;-72
2022/03/13 12:54:02;;;;;;;8.75;6.32;;;;;;;;;;4954363;28;20050;-73
2022/03/13 12:56:29;;;;;;;5.47;4.68;;;;;;;;;;4970837;28;20094;-73
2022/03/13 12:58:55;;;;;;;6.82;5.10;;;;;;;;;;4965503;28;20035;-73
2022/03/13 13:01:21;;;;;;;5.53;4.97;;;;;;;;;;4973141;28;20034;-73
2022/03/13 13:03:51;;;;;;;5.30;4.80;;;;;;;;;;4965327;28;20382;-72
2022/03/13 13:06:36;;;;;;;5.05;4.43;;;;;;;;;;4964843;28;20089;-72
2022/03/13 13:09:02;;;;;;;5.97;4.65;;;;;;;;;;4970300;28;20081;-73
2022/03/13 13:11:31;;;;;;;5.82;4.45;;;;;;;;;;4964677;28;20082;-73
2022/03/13 13:13:58;;;;;;;5.72;4.70;;;;;;;;;;4952702;28;20041;-75
2022/03/13 13:16:27;;;;;;;4.57;3.92;;;;;;;;;;4961381;28;20050;-72
2022/03/13 13:18:54;;;;;;;7.30;4.00;;;;;;;;;;4959684;28;20027;-72
2022/03/13 13:21:32;;;;;;;4.80;4.00;;;;;;;;;;4947463;28;20032;-74
2022/03/13 13:23:57;;;;;;;5.72;4.43;;;;;;;;;;4959617;28;20514;-73
2022/03/13 13:26:39;;;;;;;4.43;3.58;;;;;;;;;;4962540;28;20074;-73
2022/03/13 13:29:05;;;;;;;6.10;3.88;;;;;;;;;;4956790;28;20041;-72
2022/03/13 13:31:31;;;;;;;5.50;4.38;;;;;;;;;;4964330;28;20035;-73
2022/03/13 13:33:58;;;;;;;7.95;3.97;;;;;;;;;;4967674;28;20042;-71
2022/03/13 13:36:24;;;;;;;4.53;3.83;;;;;;;;;;4968570;28;20030;-73
2022/03/13 13:39:04;;;;;;;4.25;3.78;;;;;;;;;;4960063;28;20027;-73
2022/03/13 13:41:32;;;;;;;4.28;3.60;;;;;;;;;;4962725;28;20031;-72
2022/03/13 13:43:58;;;;;;;3.85;3.47;;;;;;;;;;4971488;28;20031;-72
2022/03/13 13:46:29;;;;;;;6.93;4.20;;;;;;;;;;4971289;28;20027;-71
2022/03/13 13:48:55;;;;;;;3.75;3.13;;;;;;;;;;4967872;28;20023;-73
2022/03/13 13:51:21;;;;;;;7.25;3.25;;;;;;;;;;4972108;28;20060;-72
2022/03/13 13:53:50;;;;;;;4.25;3.45;;;;;;;;;;4964511;28;20027;-73
2022/03/13 13:56:16;;;;;;;6.65;3.40;;;;;;;;;;4962201;28;20035;-72
2022/03/13 13:58:42;;;;;;;5.90;3.28;;;;;;;;;;4964483;28;20082;-73
2022/03/13 14:01:22;;;;;;;5.90;3.60;;;;;;;;;;4963251;28;20681;-71
2022/03/13 14:03:48;;;;;;;3.85;3.40;;;;;;;;;;4954803;28;20478;-72
2022/03/13 14:06:18;;;;;;;8.43;3.97;;;;;;;;;;4961670;28;20036;-72
2022/03/13 14:08:45;;;;;;;7.93;3.70;;;;;;;;;;4957713;28;20656;-72
2022/03/13 14:11:11;;;;;;;4.20;3.80;;;;;;;;;;4958055;28;20102;-72
2022/03/13 14:13:38;;;;;;;4.78;2.88;;;;;;;;;;4957449;28;20110;-72
2022/03/13 14:16:04;;;;;;;4.20;3.40;;;;;;;;;;4962109;28;20502;-72
2022/03/13 14:18:30;;;;;;;5.38;3.53;;;;;;;;;;4965702;28;20054;-72
2022/03/13 14:20:56;;;;;;;3.75;3.40;;;;;;;;;;4964213;28;20019;-72
2022/03/13 14:23:22;;;;;;;3.92;3.53;;;;;;;;;;4961982;28;20027;-73
2022/03/13 14:25:48;;;;;;;5.60;3.65;;;;;;;;;;4971767;28;20517;-73
2022/03/13 14:28:18;;;;;;;5.10;3.50;;;;;;;;;;4973233;28;20027;-73
2022/03/13 14:30:44;;;;;;;3.80;3.28;;;;;;;;;;4940822;28;20478;-74
2022/03/13 14:33:10;;;;;;;5.47;3.45;;;;;;;;;;4945475;29;20035;-74
2022/03/13 14:35:36;;;;;;;3.42;3.05;;;;;;;;;;4974594;28;20046;-72
2022/03/13 14:38:02;;;;;;;5.03;3.20;;;;;;;;;;4963432;28;20098;-72
2022/03/13 14:40:28;;;;;;;3.55;2.70;;;;;;;;;;4975699;28;20066;-73
2022/03/13 14:42:54;;;;;;;3.50;2.88;;;;;;;;;;4935233;28;20118;-72
2022/03/13 14:45:20;;;;;;;3.45;2.65;;;;;;;;;;4962087;28;20378;-72